Antelope Valley, Nevada Weather observations

Data are for 10 minute period ending at time listed.
 Day   Time   Solar   Ave.   Ave.  Ave.  Vector  Max.   Baro.   Total    
  of    of     Rad.   Air    Rel.  Wind   Wind   Wind  Press.  Precip.   
Year   Day            Temp.  Hum.  Speed  Dir.   Gust                    
2016   (PST)  Kw/m2    F      %     mph   deg.    mph    mb.     in.     
-------------------------------------------------------------------------
 272    0:30   0.00   45.8    58    3.5   159     5.6   852.8    0.00 
 272    0:40   0.00   45.4    60    2.3   319     4.0   852.8    0.00 
 272    0:50   0.00   43.9    62    1.9   229     3.3   852.9    0.00 
 272    1:00   0.00   43.5    64    1.3   190     2.9   852.9    0.00 
 272    1:10   0.00   44.4    62    2.8   178     4.3   852.9    0.00 
 272    1:20   0.00   44.0    62    3.3   163     4.7   852.9    0.00 
 272    1:30   0.00   43.4    64    2.7   189     4.5   852.9    0.00 
 272    1:40   0.00   42.0    69    2.5   186     3.5   852.9    0.00 
 272    1:50   0.00   42.0    69    3.6   204     5.4   852.8    0.00 
 272    2:00   0.00   42.9    66    5.4   204     6.9   852.7    0.00 
 272    2:10   0.00   44.2    63    6.7   212     7.8   852.7    0.00 
 272    2:20   0.00   44.1    63    6.5   192     8.3   852.7    0.00 
 272    2:30   0.00   43.6    63    5.2   178     6.6   852.8    0.00 
 272    2:40   0.00   44.5    60    5.6   175     6.5   852.8    0.00 
 272    2:50   0.00   44.5    60    4.3   149     5.5   852.8    0.00 
 272    3:00   0.00   43.1    64    4.3   149     6.3   852.8    0.00 
 272    3:10   0.00   43.1    63    2.5   162     4.7   852.8    0.00 
 272    3:20   0.00   42.7    65    0.7   278     2.4   852.8    0.00 
 272    3:30   0.00   42.0    64    1.7   263     2.6   852.8    0.00 
 272    3:40   0.00   41.6    64    0.5   194     1.9   852.9    0.00 
 272    3:50   0.00   43.2    61    1.8   200     3.9   852.9    0.00 
 272    4:00   0.00   45.8    54    1.7   142     3.3   852.8    0.00 
 272    4:10   0.00   45.5    56    2.2   138     3.8   852.9    0.00 
 272    4:20   0.00   41.8    66    2.4   126     3.7   852.9    0.00 
 272    4:30   0.00   40.6    71    0.8   112     2.7   852.9    0.00 
 272    4:40   0.00   39.0    75    0.3   348     3.0   852.9    0.00 
 272    4:50   0.00   38.2    73    1.7   231     3.7   852.9    0.00 
 272    5:00   0.00   37.8    74    1.3   188     2.7   852.9    0.00 
 272    5:10   0.00   37.3    75    3.5   175     5.0   853.0    0.00 
 272    5:20   0.00   37.7    75    4.1   177     5.4   853.0    0.00 
 272    5:30   0.00   38.4    71    3.8   199     5.1   853.0    0.00 
 272    5:40   0.00   37.6    72    3.2   201     5.3   853.2    0.00 
 272    5:50   0.01   37.4    73    3.5   197     5.4   853.2    0.00 
 272    6:00   0.01   37.3    74    4.6   188     5.6   853.2    0.00 
 272    6:10   0.01   38.9    73    4.4   165     5.8   853.3    0.00 
 272    6:20   0.05   40.0    71    3.6   147     4.5   853.4    0.00 
 272    6:30   0.09   42.6    69    2.1   175     4.1   853.5    0.00 
 272    6:40   0.11   44.4    68    1.4   217     2.1   853.6    0.00 
 272    6:50   0.14   46.7    65    0.6   227     1.5   853.7    0.00 
 272    7:00   0.17   49.1    63    0.9   198     2.0   853.7    0.00 
 272    7:10   0.20   51.8    58    0.5   210     1.5   853.8    0.00 
 272    7:20   0.23   52.9    56    1.4   280     2.2   853.9    0.00 
 272    7:30   0.26   54.4    49    1.6   299     2.3   854.0    0.00 
 272    7:40   0.29   56.4    42    1.5   265     2.4   854.1    0.00 
 272    7:50   0.26   59.4    40    0.9   185     1.8   854.2    0.00 
 272    8:00   0.37   60.6    38    1.6   214     2.4   854.1    0.00 
 272    8:10   0.38   61.4    39    1.9   208     3.2   854.2    0.00 
 272    8:20   0.41   62.7    38    2.1   223     3.2   854.2    0.00 
 272    8:30   0.44   64.1    36    2.3   218     4.1   854.3    0.00 
 272    8:40   0.47   66.4    33    2.1   226     3.7   854.2    0.00 
 272    8:50   0.49   67.6    30    2.7   239     4.7   854.2    0.00 
 272    9:00   0.52   69.3    27    1.8   217     3.4   854.1    0.00 
 272    9:10   0.54   72.5    24    1.1   182     2.7   854.0    0.00 
 272    9:20   0.56   73.8    23    0.7   186     3.1   853.9    0.00 
 272    9:30   0.58   73.1    24    0.9   236     2.5   853.8    0.00 
 272    9:40   0.60   74.0    22    1.5    84     3.1   853.5    0.00 
 272    9:50   0.62   74.9    22    1.1   125     2.8   853.3    0.00 
 272   10:00   0.64   76.8    21    1.5   193     5.0   853.2    0.00 
 272   10:10   0.66   77.1    20    1.6   212     4.2   853.2    0.00 
 272   10:20   0.67   78.0    20    1.4   227     3.6   853.1    0.00 
 272   10:30   0.68   78.7    19    1.4   224     3.5   853.0    0.00 
 272   10:40   0.70   80.0    17    2.0   242     7.5   852.8    0.00 
 272   10:50   0.70   79.3    18    3.6   242     7.2   852.7    0.00 
 272   11:00   0.71   79.0    18    4.5   245     8.8   852.7    0.00 
 272   11:10   0.72   79.3    17    5.2   258     9.4   852.6    0.00 
 272   11:20   0.73   79.8    18    5.0   260     9.9   852.6    0.00 
 272   11:30   0.73   80.1    18    3.9   253     7.7   852.5    0.00 
 272   11:40   0.73   80.3    17    5.1   228     8.3   852.5    0.00 
 272   11:50   0.74   80.5    17    5.0   232     9.4   852.5    0.00 
 272   12:00   0.73   81.2    16    4.6   250     8.6   852.4    0.00 
 272   12:10   0.73   82.0    16    4.6   266    10.4   852.4    0.00 
 272   12:20   0.73   81.7    18    7.1   260    11.7   852.4    0.00 
 272   12:30   0.73   81.9    15    4.8   263    10.0   852.2    0.00 
 272   12:40   0.72   82.5    16    6.4   255    13.0   852.1    0.00 
 272   12:50   0.71   83.0    16    8.2   266    15.3   851.9    0.00 
 272   13:00   0.71   83.0    14    7.7   267    12.6   851.8    0.00 
 272   13:10   0.70   83.8    12    3.6   286    10.5   851.7    0.00 
 272   13:20   0.69   83.8    14    6.5   259    11.2   851.7    0.00 
 272   13:30   0.69   83.4    13    5.4   238     9.9   851.7    0.00 
 272   13:40   0.59   84.6    12    2.4   134     4.4   851.7    0.00 
 272   13:50   0.46   84.5    11    3.3   103     8.7   851.5    0.00 
 272   14:00   0.62   85.1    11    3.8    83     7.5   851.5    0.00 
 272   14:10   0.60   85.0    12    3.2   152     6.6   851.5    0.00 
 272   14:20   0.57   84.9    14    3.6   205     7.5   851.5    0.00 
 272   14:30   0.22   83.0    16    2.6   201     5.5   851.4    0.00 
 272   14:40   0.19   82.0    15    2.8   270     6.8   851.3    0.00 
 272   14:50   0.33   80.9    20    2.9   212     5.8   851.2    0.00 
 272   15:00   0.39   83.6    15    2.7   205     5.6   851.1    0.00 
 272   15:10   0.35   83.4    16    2.9   231     6.0   851.0    0.00 
 272   15:20   0.17   82.5    19    2.0   210     3.1   851.0    0.00 
 272   15:30   0.12   81.6    14    1.5   272     2.6   851.0    0.00 
 272   15:40   0.15   82.2    15    1.3   276     3.0   850.8    0.00 
 272   15:50   0.23   81.8    16    2.0   292     3.0   850.7    0.00 
 272   16:00   0.29   83.2    14    2.9   304     4.7   850.7    0.00 
 272   16:10   0.30   84.9    13    3.0   305     4.7   850.8    0.00 
 272   16:20   0.23   83.8    13    3.5   303     5.0   850.8    0.00 
 272   16:30   0.15   83.5    12    3.0   290     4.1   850.8    0.00 
 272   16:40   0.21   84.6    14    1.2   285     2.9   850.8    0.00 
 272   16:50   0.17   86.2    11    0.8   318     1.8   850.8    0.00 
 272   17:00   0.13   85.8    13    0.7   351     1.5   850.8    0.00 
 272   17:10   0.10   83.2    15    2.7    27     4.5   850.8    0.00 
 272   17:20   0.07   80.2    18    3.4    27     4.3   850.7    0.00 
 272   17:30   0.04   77.6    22    2.1   264     4.4   850.7    0.00 
 272   17:40   0.01   78.2    16    1.7   301     4.2   850.7    0.00 
 272   17:50   0.00   78.9    14    2.8   319     4.0   850.5    0.00 
 272   18:00   0.00   76.5    17    4.2    57     6.8   850.5    0.00 
 272   18:10   0.00   75.4    16    3.0    93     5.5   850.5    0.00 
 272   18:20   0.00   77.4    15    1.5   260     2.5   850.5    0.00 
 272   18:30   0.00   74.0    20    1.8   187     7.7   850.5    0.00 
 272   18:40   0.00   71.3    23    3.0   197     9.2   850.6    0.00 
 272   18:50   0.00   70.2    26    4.5   197     7.1   850.7    0.00 
 272   19:00   0.00   70.8    24    3.8   187     6.0   850.8    0.00 
 272   19:10   0.00   69.3    25    3.9   168     5.8   851.1    0.00 
 272   19:20   0.00   69.1    25    3.9   174     6.2   851.2    0.00 
 272   19:30   0.00   66.6    32    4.9   194     9.4   851.3    0.00 
 272   19:40   0.00   71.0    25    8.0   180    12.5   851.4    0.00 
 272   19:50   0.00   68.6    29    5.4   199     9.1   851.6    0.00 
 272   20:00   0.00   70.6    25    8.1   168    15.0   851.6    0.00 
 272   20:10   0.00   70.7    26    4.3   212     6.6   851.7    0.00 
 272   20:20   0.00   67.9    29    4.2   252     6.9   851.8    0.00 
 272   20:30   0.00   70.3    26    7.9   237    14.5   852.0    0.00 
 272   20:40   0.00   70.3    26    4.8   210     8.0   852.2    0.00 
 272   20:50   0.00   68.0    30    4.5   179     5.6   852.2    0.00 
 272   21:00   0.00   68.6    28    3.7   180     4.9   852.3    0.00 
 272   21:10   0.00   67.8    31    4.7   191     6.9   852.3    0.00 
 272   21:20   0.00   67.7    32    7.3   221    11.2   852.4    0.00 
 272   21:30   0.00   70.2    29    7.8   214    11.2   852.4    0.00 
 272   21:40   0.00   69.6    29    7.5   182    12.0   852.4    0.00 
 272   21:50   0.00   67.7    32    5.6   209     8.2   852.5    0.00 
 272   22:00   0.00   65.9    35    5.5   166     6.5   852.5    0.00 
 272   22:10   0.00   64.8    36    5.1   164     6.4   852.6    0.00 
 272   22:20   0.00   64.2    37    5.3   190     8.6   852.7    0.00 
 272   22:30   0.00   65.7    34    6.1   158     8.8   852.6    0.00 
 272   22:40   0.00   66.2    33    5.5   164     9.3   852.6    0.00 
 272   22:50   0.00   66.2    35    5.4   198     8.0   852.5    0.00 
 272   23:00   0.00   64.6    38    6.0   222     7.2   852.5    0.00 
 272   23:10   0.00   63.7    38    6.4   241     8.1   852.5    0.00 
 272   23:20   0.00   65.5    35    9.1   243    11.6   852.5    0.00 
 272   23:30   0.00   66.3    33    8.0   240    10.7   852.6    0.00 
 272   23:40   0.00   65.8    33    8.2   238    11.4   852.7    0.00 
 272   23:50   0.00   64.0    38    6.5   220     8.3   852.7    0.00 
 273    0:00   0.00   64.5    37    7.2   206     9.9   852.8    0.00 
 273    0:10   0.00   65.8    34    6.2   235     9.1   853.0    0.00 
 273    0:20   0.00   64.8    35    5.4   255     9.3   853.0    0.00 

Return to Antelope Valley graphs page.


Western Regional Climate Center,wrcc@dri.edu